Time;durP1;ratioP1;P1;durP2;ratioP2;P2;SDS_P1;SDS_P2;PMS_P1;PMS_P2;Temp;Humidity;BMP_temperature;BMP_pressure;BME280_temperature;BME280_humidity;BME280_pressure;Samples;Min_cycle;Max_cycle;Signal;HPM_P1;HPM_P2
2023/01/18 00:00:58;;;;;;;27.90;24.48;;;;;;;-0.44;100.00;93144.56;5050270;28;20052;-69
2023/01/18 00:03:23;;;;;;;26.13;23.33;;;;;;;-0.40;100.00;93145.91;5037331;28;20036;-68
2023/01/18 00:05:49;;;;;;;26.42;23.40;;;;;;;-0.45;100.00;93138.56;5049380;28;20442;-68
2023/01/18 00:08:17;;;;;;;108.95;74.22;;;;;;;-0.47;100.00;93139.66;5050005;28;20052;-69
2023/01/18 00:10:43;;;;;;;82.55;58.40;;;;;;;-0.46;100.00;93133.53;5050044;28;20036;-62
2023/01/18 00:13:09;;;;;;;84.95;55.60;;;;;;;-0.48;100.00;93138.03;5049888;28;20032;-61
2023/01/18 00:15:35;;;;;;;123.38;80.30;;;;;;;-0.46;100.00;93128.38;5049200;28;20430;-61
2023/01/18 00:18:01;;;;;;;64.65;47.22;;;;;;;-0.45;100.00;93133.38;5049694;28;20029;-60
2023/01/18 00:20:28;;;;;;;44.85;34.60;;;;;;;-0.45;100.00;93132.59;5049459;28;20029;-61
2023/01/18 00:22:53;;;;;;;32.70;28.45;;;;;;;-0.47;100.00;93127.53;5076349;28;20063;-60
2023/01/18 00:25:21;;;;;;;28.42;24.23;;;;;;;-0.28;100.00;93130.25;5073732;28;20055;-61
2023/01/18 00:27:49;;;;;;;29.38;23.42;;;;;;;-0.27;100.00;93134.47;5080399;28;20085;-61
2023/01/18 00:30:16;;;;;;;34.10;27.35;;;;;;;-0.19;100.00;93129.41;5091736;28;20089;-63
2023/01/18 00:32:43;;;;;;;45.05;30.13;;;;;;;-0.34;100.00;93127.25;5092032;28;20108;-62
2023/01/18 00:35:08;;;;;;;37.67;30.75;;;;;;;-0.40;100.00;93135.56;5090725;28;20073;-61
2023/01/18 00:37:34;;;;;;;34.47;30.10;;;;;;;-0.29;100.00;93137.19;5091745;28;20044;-61
2023/01/18 00:40:00;;;;;;;32.05;25.67;;;;;;;-0.35;100.00;93138.56;5091695;28;20478;-61
2023/01/18 00:45:10;;;;;;;37.00;28.45;;;;;;;-0.44;100.00;93141.97;5091128;28;20044;-60
2023/01/18 00:47:35;;;;;;;36.60;28.75;;;;;;;-0.44;100.00;93136.81;5091705;28;20401;-73
2023/01/18 00:50:00;;;;;;;42.75;32.22;;;;;;;-0.41;100.00;93151.25;5091429;28;20016;-63
2023/01/18 00:52:26;;;;;;;41.47;33.45;;;;;;;-0.43;100.00;93153.94;5091697;28;20048;-63
2023/01/18 00:54:52;;;;;;;31.92;28.50;;;;;;;-0.41;100.00;93148.66;5091221;28;20016;-64
2023/01/18 00:57:17;;;;;;;27.42;24.48;;;;;;;-0.45;100.00;93151.50;5092092;28;20050;-63
2023/01/18 00:59:42;;;;;;;26.15;23.55;;;;;;;-0.46;100.00;93152.44;5090982;28;20532;-63
2023/01/18 01:02:08;;;;;;;26.70;23.92;;;;;;;-0.45;100.00;93159.25;5091611;28;20067;-63
2023/01/18 01:07:17;;;;;;;42.28;35.97;;;;;;;-0.44;100.00;93160.06;5091503;28;20097;-72
2023/01/18 01:09:45;;;;;;;36.60;28.98;;;;;;;-0.42;100.00;93165.91;5090997;28;20475;-60
2023/01/18 01:26:12;;;;;;;23.35;20.85;;;;;;;-0.35;100.00;93181.69;5090654;28;20039;-66
2023/01/18 01:28:41;;;;;;;18.50;16.48;;;;;;;-0.35;100.00;93187.69;5090352;28;20111;-67
2023/01/18 01:31:10;;;;;;;18.20;15.65;;;;;;;-0.34;100.00;93189.31;5090717;28;20028;-75
2023/01/18 01:33:36;;;;;;;17.92;14.65;;;;;;;-0.28;100.00;93185.38;5090569;28;20032;-75
2023/01/18 01:36:05;;;;;;;21.48;19.20;;;;;;;-0.30;100.00;93184.69;5090959;28;20032;-74
2023/01/18 01:38:30;;;;;;;20.35;18.23;;;;;;;-0.30;100.00;93180.34;5090295;28;20521;-75
2023/01/18 01:40:57;;;;;;;19.17;17.35;;;;;;;-0.27;100.00;93189.56;5090883;28;20027;-75
2023/01/18 01:43:40;;;;;;;23.10;20.58;;;;;;;-0.35;100.00;93182.50;5090154;28;20085;-75
2023/01/18 01:46:49;;;;;;;20.52;18.42;;;;;;;-0.36;100.00;93183.47;5089966;28;20032;-74
2023/01/18 01:49:18;;;;;;;21.77;19.50;;;;;;;-0.36;100.00;93180.88;5090628;28;20032;-69
2023/01/18 01:51:51;;;;;;;16.08;14.45;;;;;;;-0.35;100.00;93185.09;5090009;28;20105;-68
2023/01/18 01:54:22;;;;;;;15.75;14.18;;;;;;;-0.38;100.00;93189.75;5072365;28;20031;-68
2023/01/18 01:56:50;;;;;;;16.35;14.50;;;;;;;-0.21;100.00;93185.63;5090179;28;20040;-68
2023/01/18 01:59:17;;;;;;;14.35;12.95;;;;;;;-0.23;100.00;93179.78;5072215;28;20016;-69
2023/01/18 02:01:44;;;;;;;14.80;13.50;;;;;;;-0.23;100.00;93184.97;5090123;28;20069;-69
2023/01/18 02:04:10;;;;;;;15.35;13.90;;;;;;;-0.28;100.00;93192.31;5090214;28;20031;-68
2023/01/18 02:06:37;;;;;;;17.33;15.65;;;;;;;-0.27;100.00;93196.53;5090222;28;20089;-61
2023/01/18 02:09:21;;;;;;;17.73;15.82;;;;;;;-0.35;100.00;93182.50;5090137;28;20023;-65
2023/01/18 02:11:51;;;;;;;17.80;16.20;;;;;;;-0.43;100.00;93182.38;5089952;28;20513;-66
2023/01/18 02:14:20;;;;;;;19.92;18.02;;;;;;;-0.49;100.00;93186.31;5089913;28;20043;-65
2023/01/18 02:17:07;;;;;;;18.90;16.60;;;;;;;-0.42;100.00;93186.59;5090178;28;20097;-65
2023/01/18 02:19:50;;;;;;;17.85;16.10;;;;;;;-0.49;100.00;93185.53;5088175;28;20028;-65
2023/01/18 02:22:21;;;;;;;17.15;15.57;;;;;;;-0.54;100.00;93179.97;5089738;28;20036;-65
2023/01/18 02:25:21;;;;;;;17.10;15.45;;;;;;;-0.58;100.00;93194.91;5090096;28;20053;-68
2023/01/18 02:28:03;;;;;;;18.83;17.02;;;;;;;-0.58;100.00;93190.53;5090305;28;20024;-74
2023/01/18 02:30:34;;;;;;;19.20;17.30;;;;;;;-0.58;100.00;93193.13;5089363;28;20510;-74
2023/01/18 02:33:38;;;;;;;19.65;17.77;;;;;;;-0.58;100.00;93185.38;5089965;28;20031;-74
2023/01/18 02:36:05;;;;;;;18.55;16.85;;;;;;;-0.58;100.00;93197.50;5089971;28;20032;-74
2023/01/18 02:38:40;;;;;;;24.88;22.42;;;;;;;-0.58;100.00;93203.47;5089502;28;20118;-75
2023/01/18 02:41:11;;;;;;;19.98;17.90;;;;;;;-0.21;100.00;93201.97;5089911;28;20024;-73
2023/01/18 02:46:34;;;;;;;8.40;7.75;;;;;;;0.02;100.00;93206.00;5089921;28;20089;-59
2023/01/18 02:49:06;;;;;;;10.98;9.98;;;;;;;0.27;100.00;93218.34;5089675;28;20074;-59
2023/01/18 02:51:32;;;;;;;11.45;10.45;;;;;;;0.06;100.00;93213.38;5089456;28;20035;-59
2023/01/18 02:53:58;;;;;;;10.13;9.32;;;;;;;0.03;100.00;93216.25;5090057;28;20559;-59
2023/01/18 02:56:35;;;;;;;11.13;8.32;;;;;;;0.19;100.00;93220.00;5089507;28;20084;-59
2023/01/18 02:59:07;;;;;;;8.93;8.02;;;;;;;0.24;100.00;93215.25;5089224;28;20024;-59
2023/01/18 03:01:39;;;;;;;9.15;8.35;;;;;;;0.26;100.00;93219.31;5088859;28;20020;-59
2023/01/18 03:04:14;;;;;;;10.73;9.73;;;;;;;0.08;100.00;93218.38;5089583;28;20063;-65
2023/01/18 03:06:45;;;;;;;10.60;9.70;;;;;;;0.08;100.00;93220.97;5089404;28;20117;-75
2023/01/18 03:09:17;;;;;;;9.80;9.00;;;;;;;0.18;100.00;93220.97;5089281;28;20024;-76
2023/01/18 03:11:55;;;;;;;7.63;7.03;;;;;;;0.48;100.00;93219.94;5089580;28;20024;-75
2023/01/18 03:14:31;;;;;;;7.65;6.85;;;;;;;0.42;100.00;93220.50;5089089;28;20426;-76
2023/01/18 03:17:13;;;;;;;6.63;5.43;;;;;;;0.36;100.00;93226.25;5089738;28;20107;-75
2023/01/18 03:20:07;;;;;;;4.05;3.75;;;;;;;0.46;100.00;93216.66;5076598;28;20066;-75
2023/01/18 03:25:37;;;;;;;5.53;5.13;;;;;;;0.25;100.00;93214.28;5088803;28;21848;-64
2023/01/18 03:33:46;;;;;;;4.35;4.05;;;;;;;0.32;100.00;93233.47;5089161;28;20039;-64
2023/01/18 03:36:27;;;;;;;4.75;4.35;;;;;;;0.16;100.00;93226.28;5089258;28;20024;-65
2023/01/18 03:39:02;;;;;;;5.10;4.70;;;;;;;0.02;100.00;93230.13;5081118;28;20434;-65
2023/01/18 03:41:31;;;;;;;4.63;4.32;;;;;;;0.11;100.00;93224.13;5089059;28;20035;-61
2023/01/18 03:44:02;;;;;;;4.43;4.13;;;;;;;0.17;100.00;93232.28;5089086;28;20032;-74
2023/01/18 03:46:31;;;;;;;4.90;4.50;;;;;;;0.23;100.00;93242.09;5089150;28;20021;-68
2023/01/18 03:48:57;;;;;;;2.95;2.67;;;;;;;0.16;100.00;93249.56;5089174;28;20058;-68
2023/01/18 03:51:40;;;;;;;5.00;4.10;;;;;;;0.11;100.00;93246.56;5087451;28;20042;-68
2023/01/18 03:54:14;;;;;;;3.20;2.83;;;;;;;0.19;100.00;93257.06;5086924;28;20031;-68
2023/01/18 03:57:16;;;;;;;5.10;3.88;;;;;;;0.12;100.00;93261.16;5088550;28;20049;-69
2023/01/18 03:59:42;;;;;;;2.88;2.38;;;;;;;0.31;100.00;93251.72;5075721;28;20085;-69
2023/01/18 04:02:08;;;;;;;2.35;2.25;;;;;;;0.47;100.00;93253.75;5088710;28;20032;-60
2023/01/18 04:04:34;;;;;;;3.63;3.33;;;;;;;0.36;100.00;93252.13;5088947;28;20031;-66
2023/01/18 04:06:59;;;;;;;4.18;2.70;;;;;;;0.16;100.00;93261.69;5089288;28;20028;-66
2023/01/18 04:09:25;;;;;;;3.05;2.90;;;;;;;0.03;100.00;93256.81;5088717;28;20028;-65
2023/01/18 04:11:51;;;;;;;7.00;6.45;;;;;;;-0.04;100.00;93254.78;5091779;28;20024;-65
2023/01/18 04:14:16;;;;;;;11.80;10.77;;;;;;;-0.11;100.00;93266.63;5092754;28;20027;-65
2023/01/18 04:16:42;;;;;;;13.32;12.23;;;;;;;-0.13;100.00;93265.13;5092028;28;20016;-66
2023/01/18 04:19:07;;;;;;;12.77;11.73;;;;;;;-0.14;100.00;93261.72;5092588;28;20485;-66
2023/01/18 04:21:33;;;;;;;15.82;13.27;;;;;;;-0.16;100.00;93263.63;5091501;28;20020;-60
2023/01/18 04:23:59;;;;;;;16.33;14.73;;;;;;;-0.20;100.00;93268.25;5092161;28;20024;-62
2023/01/18 04:26:24;;;;;;;19.70;15.95;;;;;;;-0.20;100.00;93264.84;5092032;28;20042;-62
2023/01/18 04:28:49;;;;;;;19.95;17.83;;;;;;;-0.13;100.00;93268.50;5092012;28;20024;-62
2023/01/18 04:31:15;;;;;;;18.90;16.77;;;;;;;-0.21;100.00;93263.22;5090177;28;20032;-61
2023/01/18 04:33:40;;;;;;;16.90;14.60;;;;;;;-0.27;100.00;93261.19;5092561;28;20031;-62
2023/01/18 04:36:06;;;;;;;16.35;14.73;;;;;;;-0.36;100.00;93257.63;5092049;28;20510;-61
2023/01/18 04:38:31;;;;;;;14.30;13.00;;;;;;;-0.40;100.00;93262.25;5091725;28;20040;-60
2023/01/18 04:41:02;;;;;;;11.77;10.77;;;;;;;-0.45;100.00;93265.22;5091762;28;20071;-68
2023/01/18 04:43:28;;;;;;;11.45;10.35;;;;;;;-0.45;100.00;93265.22;5092108;28;20584;-61
2023/01/18 04:45:54;;;;;;;14.02;12.75;;;;;;;-0.45;100.00;93267.00;5084415;28;20024;-61
2023/01/18 04:48:21;;;;;;;53.72;47.13;;;;;;;-0.46;100.00;93273.13;5089587;28;20154;-61
2023/01/18 04:50:47;;;;;;;21.83;19.30;;;;;;;-0.51;100.00;93278.72;5091585;28;20035;-62
2023/01/18 04:53:13;;;;;;;22.95;20.38;;;;;;;-0.49;100.00;93278.59;5091679;28;20028;-62
2023/01/18 04:55:38;;;;;;;150.75;119.07;;;;;;;-0.46;100.00;93271.34;5091853;28;20477;-62
2023/01/18 04:58:03;;;;;;;32.88;28.42;;;;;;;-0.45;100.00;93275.56;5091732;28;20027;-61
2023/01/18 05:00:29;;;;;;;17.80;16.10;;;;;;;-0.46;100.00;93278.31;5091139;28;20024;-65
2023/01/18 05:02:54;;;;;;;14.80;13.30;;;;;;;-0.41;100.00;93280.50;5091294;28;20051;-69
2023/01/18 05:05:19;;;;;;;13.95;12.63;;;;;;;-0.43;100.00;93280.63;5089772;28;20558;-69
2023/01/18 05:07:45;;;;;;;13.98;12.57;;;;;;;-0.46;100.00;93278.31;5090569;28;20028;-69
2023/01/18 05:10:11;;;;;;;19.00;17.00;;;;;;;-0.47;100.00;93293.00;5091486;28;20044;-69
2023/01/18 05:12:36;;;;;;;39.28;28.35;;;;;;;-0.45;100.00;93300.63;5091143;28;20051;-68
2023/01/18 05:15:02;;;;;;;22.90;20.35;;;;;;;-0.39;100.00;93307.03;5091299;28;20020;-68
2023/01/18 05:17:29;;;;;;;18.08;16.27;;;;;;;-0.34;100.00;93313.41;5091157;28;20536;-65
2023/01/18 05:19:54;;;;;;;17.17;15.68;;;;;;;-0.24;100.00;93307.47;5085817;28;20553;-62
2023/01/18 05:22:21;;;;;;;17.80;16.08;;;;;;;-0.42;100.00;93315.88;5085759;28;20028;-64
2023/01/18 05:24:47;;;;;;;16.17;14.77;;;;;;;-0.48;100.00;93311.25;5089474;28;20706;-64
2023/01/18 05:27:13;;;;;;;18.38;16.67;;;;;;;-0.56;100.00;93321.41;5087895;28;20092;-65
2023/01/18 05:29:39;;;;;;;18.40;16.70;;;;;;;-0.61;100.00;93322.63;5078722;28;20028;-64
2023/01/18 05:32:09;;;;;;;17.95;16.20;;;;;;;-0.58;100.00;93321.56;5088105;28;20478;-64
2023/01/18 05:34:34;;;;;;;17.42;15.73;;;;;;;-0.64;100.00;93322.09;5090448;28;20020;-65
2023/01/18 05:37:00;;;;;;;16.45;14.88;;;;;;;-0.64;100.00;93322.91;5089272;28;20023;-71
2023/01/18 05:39:25;;;;;;;15.77;14.30;;;;;;;-0.62;100.00;93320.19;5090425;28;20032;-60
2023/01/18 05:41:51;;;;;;;14.30;12.90;;;;;;;-0.55;100.00;93325.63;5090274;28;20020;-61
2023/01/18 05:44:16;;;;;;;13.95;12.65;;;;;;;-0.52;100.00;93325.38;5090483;28;20051;-61
2023/01/18 05:46:41;;;;;;;13.82;12.50;;;;;;;-0.59;100.00;93323.31;5090462;28;20051;-60
2023/01/18 05:49:07;;;;;;;15.02;13.57;;;;;;;-0.64;100.00;93327.25;5090736;28;20116;-60
2023/01/18 05:51:32;;;;;;;13.05;11.85;;;;;;;-0.68;100.00;93331.88;5090082;28;20032;-61
2023/01/18 05:53:57;;;;;;;22.55;20.52;;;;;;;-0.68;100.00;93328.44;5090352;28;20060;-61
2023/01/18 05:56:23;;;;;;;23.52;21.33;;;;;;;-0.73;100.00;93337.41;5090153;28;20027;-70
2023/01/18 05:58:48;;;;;;;19.75;17.13;;;;;;;-0.75;100.00;93335.94;5090476;28;20020;-69
2023/01/18 06:01:13;;;;;;;15.52;14.05;;;;;;;-0.79;100.00;93345.72;5089840;28;20028;-67
2023/01/18 06:03:39;;;;;;;20.00;17.63;;;;;;;-0.77;100.00;93345.59;5090328;28;20028;-67
2023/01/18 06:06:05;;;;;;;23.17;20.00;;;;;;;-0.73;100.00;93339.22;5089787;28;20081;-67
2023/01/18 06:08:31;;;;;;;22.75;20.45;;;;;;;-0.78;100.00;93347.34;5090389;28;20403;-67
2023/01/18 06:10:58;;;;;;;50.55;35.13;;;;;;;-0.77;100.00;93348.16;5089820;28;20486;-67
2023/01/18 06:13:26;;;;;;;28.30;21.05;;;;;;;-0.81;100.00;93346.78;5090445;28;20066;-67
2023/01/18 06:15:53;;;;;;;19.08;17.08;;;;;;;-0.61;100.00;93347.66;5089687;28;20543;-61
2023/01/18 06:18:22;;;;;;;55.45;41.30;;;;;;;-0.54;100.00;93351.34;5090087;28;20030;-62
2023/01/18 06:20:48;;;;;;;33.35;27.45;;;;;;;-0.56;100.00;93350.66;5089759;28;20028;-70
2023/01/18 06:23:13;;;;;;;27.88;24.67;;;;;;;-0.57;100.00;93349.03;5090446;28;20028;-69
2023/01/18 06:25:39;;;;;;;18.55;16.73;;;;;;;-0.53;100.00;93349.59;5089522;28;20024;-70
2023/01/18 06:28:05;;;;;;;20.13;18.27;;;;;;;-0.65;100.00;93348.88;5090018;28;20504;-69
2023/01/18 06:30:31;;;;;;;54.00;43.15;;;;;;;-0.77;100.00;93346.38;5089449;28;20016;-69
2023/01/18 06:32:56;;;;;;;22.83;18.92;;;;;;;-0.80;100.00;93349.25;5089188;28;20035;-70
2023/01/18 06:35:22;;;;;;;14.10;12.90;;;;;;;-0.75;100.00;93351.44;5089757;28;20016;-68
2023/01/18 06:37:47;;;;;;;12.52;11.52;;;;;;;-0.76;100.00;93355.78;5090038;28;20052;-61
2023/01/18 06:40:13;;;;;;;16.55;14.85;;;;;;;-0.73;100.00;93354.72;5089486;28;20032;-62
2023/01/18 06:42:39;;;;;;;16.42;14.82;;;;;;;-0.76;100.00;93368.69;5089642;28;20035;-62
2023/01/18 06:45:05;;;;;;;17.88;16.17;;;;;;;-0.78;100.00;93377.50;5089555;28;20016;-61
2023/01/18 06:47:30;;;;;;;14.05;12.75;;;;;;;-0.78;100.00;93380.09;5089552;28;20020;-62
2023/01/18 06:49:56;;;;;;;14.13;12.82;;;;;;;-0.81;100.00;93385.53;5089442;28;20529;-61
2023/01/18 06:52:21;;;;;;;15.18;13.77;;;;;;;-0.75;100.00;93385.84;5089775;28;20485;-61
2023/01/18 06:54:47;;;;;;;12.85;11.55;;;;;;;-0.74;100.00;93389.25;5089327;28;20513;-60
2023/01/18 06:57:12;;;;;;;12.85;11.80;;;;;;;-0.85;100.00;93386.75;5089543;28;20028;-60
2023/01/18 06:59:38;;;;;;;13.68;12.38;;;;;;;-0.85;100.00;93390.16;5089148;28;20069;-60
2023/01/18 07:02:04;;;;;;;14.57;13.07;;;;;;;-0.84;100.00;93393.53;5078604;28;20124;-60
2023/01/18 07:04:31;;;;;;;16.20;13.30;;;;;;;-0.76;100.00;93399.72;5089322;28;20036;-60
2023/01/18 07:06:57;;;;;;;17.75;15.40;;;;;;;-0.82;100.00;93402.81;5088982;28;20773;-61
2023/01/18 07:09:22;;;;;;;22.05;16.08;;;;;;;-0.72;100.00;93402.84;5088818;28;20023;-60
2023/01/18 07:11:48;;;;;;;18.98;14.23;;;;;;;-0.45;100.00;93415.19;5089280;28;20096;-61
2023/01/18 07:14:13;;;;;;;22.90;17.65;;;;;;;-0.60;100.00;93413.91;5089363;28;20032;-61
2023/01/18 07:16:39;;;;;;;19.80;17.33;;;;;;;-0.53;100.00;93421.97;5089305;28;20052;-60
2023/01/18 07:19:05;;;;;;;21.58;18.80;;;;;;;-0.72;100.00;93419.16;5089147;28;20566;-60
2023/01/18 07:21:31;;;;;;;24.67;20.77;;;;;;;-0.84;100.00;93427.97;5070801;28;20028;-61
2023/01/18 07:23:59;;;;;;;23.50;20.67;;;;;;;-0.87;100.00;93430.81;5086736;28;20024;-60
2023/01/18 07:26:25;;;;;;;24.55;21.60;;;;;;;-0.87;100.00;93431.63;5085653;28;20043;-61
2023/01/18 07:28:51;;;;;;;24.15;21.65;;;;;;;-0.82;100.00;93438.16;5085255;28;20036;-61
2023/01/18 07:31:17;;;;;;;24.10;21.55;;;;;;;-0.82;100.00;93445.91;5088054;28;20028;-61
2023/01/18 07:33:43;;;;;;;21.90;19.58;;;;;;;-0.82;100.00;93440.75;5089004;28;20028;-64
2023/01/18 07:36:10;;;;;;;21.50;19.23;;;;;;;-0.86;100.00;93442.78;5089129;28;20482;-61
2023/01/18 07:38:36;;;;;;;21.67;19.17;;;;;;;-0.90;100.00;93444.78;5089022;28;20055;-61
2023/01/18 07:41:07;;;;;;;21.30;19.08;;;;;;;-0.90;100.00;93449.13;5088923;28;20020;-62
2023/01/18 07:43:32;;;;;;;24.30;21.83;;;;;;;-0.92;100.00;93454.44;5089342;28;20020;-61
2023/01/18 07:45:59;;;;;;;34.30;27.02;;;;;;;-0.91;100.00;93447.50;5092704;28;20382;-61
2023/01/18 07:48:28;;;;;;;38.20;32.95;;;;;;;-0.92;100.00;93453.59;5092654;28;20059;-62
2023/01/18 07:50:58;;;;;;;28.15;24.42;;;;;;;-0.90;100.00;93452.53;5092767;28;20065;-61
2023/01/18 07:53:25;;;;;;;22.38;20.08;;;;;;;-0.80;100.00;93459.50;5092994;28;20031;-61
2023/01/18 07:55:51;;;;;;;20.90;18.70;;;;;;;-0.80;100.00;93464.69;5092723;28;20031;-61
2023/01/18 07:58:18;;;;;;;21.88;19.55;;;;;;;-0.75;100.00;93472.88;5092725;28;20421;-61
2023/01/18 08:00:43;;;;;;;36.72;32.95;;;;;;;-0.80;100.00;93469.84;5092199;28;20020;-61
2023/01/18 08:03:14;;;;;;;31.15;27.98;;;;;;;-0.67;100.00;93483.41;5092438;28;20448;-62
2023/01/18 08:05:41;;;;;;;28.08;25.50;;;;;;;-0.69;100.00;93481.88;5092586;28;20024;-62
2023/01/18 08:08:09;;;;;;;32.72;29.58;;;;;;;-0.65;100.00;93489.25;5092210;28;20032;-61
2023/01/18 08:10:34;;;;;;;37.00;33.30;;;;;;;-0.67;100.00;93485.97;5092697;28;20505;-61
2023/01/18 08:13:00;;;;;;;30.45;27.15;;;;;;;-0.69;100.00;93493.03;5092042;28;20032;-61
2023/01/18 08:15:25;;;;;;;30.08;27.08;;;;;;;-0.60;100.00;93497.44;5092638;28;20020;-69
2023/01/18 08:17:50;;;;;;;27.52;24.98;;;;;;;-0.65;100.00;93496.19;5092085;28;20107;-69
2023/01/18 08:20:15;;;;;;;29.17;26.38;;;;;;;-0.67;100.00;93503.25;5092407;28;20529;-69
2023/01/18 08:22:41;;;;;;;32.58;29.02;;;;;;;-0.69;100.00;93495.63;5091958;28;20052;-70
2023/01/18 08:25:06;;;;;;;28.00;25.30;;;;;;;-0.70;100.00;93496.56;5092348;28;20016;-70
2023/01/18 08:27:32;;;;;;;24.52;22.23;;;;;;;-0.72;100.00;93495.88;5091788;28;20051;-70
2023/01/18 08:29:57;;;;;;;27.17;24.65;;;;;;;-0.74;100.00;93502.94;5092252;28;20051;-70
2023/01/18 08:32:23;;;;;;;26.02;23.52;;;;;;;-0.77;100.00;93508.38;5092211;28;20099;-70
2023/01/18 08:34:48;;;;;;;29.92;26.98;;;;;;;-0.78;100.00;93511.88;5092172;28;20024;-66
2023/01/18 08:37:13;;;;;;;28.50;25.77;;;;;;;-0.64;100.00;93513.34;5091594;28;20028;-67
2023/01/18 08:39:39;;;;;;;44.08;38.70;;;;;;;-0.59;100.00;93516.38;5091747;28;20028;-67
2023/01/18 08:42:04;;;;;;;42.92;38.40;;;;;;;-0.59;100.00;93517.16;5091474;28;20032;-66
2023/01/18 08:44:30;;;;;;;42.78;38.35;;;;;;;-0.62;100.00;93519.22;5091884;28;20032;-67
2023/01/18 08:46:55;;;;;;;46.38;41.55;;;;;;;-0.62;100.00;93514.84;5091948;28;20548;-65
2023/01/18 08:49:20;;;;;;;43.72;39.53;;;;;;;-0.59;100.00;93512.00;5091978;28;20028;-70
2023/01/18 08:51:46;;;;;;;42.33;38.22;;;;;;;-0.56;100.00;93518.69;5073255;28;20031;-69
2023/01/18 08:54:11;;;;;;;40.78;36.72;;;;;;;-0.49;100.00;93517.22;5091537;28;20054;-61
2023/01/18 08:56:37;;;;;;;40.38;36.20;;;;;;;-0.44;100.00;93511.66;5090778;28;20027;-61
2023/01/18 08:59:07;;;;;;;39.95;36.13;;;;;;;-0.37;100.00;93524.91;5091598;28;20055;-61
2023/01/18 09:01:32;;;;;;;45.15;40.67;;;;;;;-0.41;100.00;93534.69;5090680;28;20020;-61
2023/01/18 09:03:57;;;;;;;54.08;48.33;;;;;;;-0.38;100.00;93542.19;5091616;28;20081;-61
2023/01/18 09:06:23;;;;;;;56.75;50.92;;;;;;;-0.46;100.00;93547.19;5091114;28;20069;-61
2023/01/18 09:08:49;;;;;;;44.92;40.22;;;;;;;-0.42;100.00;93552.94;5091332;28;20123;-61
2023/01/18 09:11:16;;;;;;;30.05;26.88;;;;;;;-0.27;100.00;93561.97;5091024;28;20522;-61
2023/01/18 09:13:42;;;;;;;31.38;28.17;;;;;;;-0.44;100.00;93559.03;5091153;28;20098;-60
2023/01/18 09:16:09;;;;;;;49.63;43.67;;;;;;;-0.42;100.00;93568.44;5090924;28;20031;-61
2023/01/18 09:18:36;;;;;;;42.13;37.75;;;;;;;-0.49;100.00;93573.28;5091381;28;20020;-61
2023/01/18 09:21:10;;;;;;;40.58;36.17;;;;;;;-0.43;100.00;93580.53;5091175;28;20165;-61
2023/01/18 09:23:38;;;;;;;53.92;48.10;;;;;;;-0.35;100.00;93592.81;5090359;28;20028;-61
2023/01/18 09:26:19;;;;;;;51.42;46.33;;;;;;;-0.28;100.00;93590.56;5090756;28;20024;-61
2023/01/18 09:28:52;;;;;;;45.17;40.63;;;;;;;-0.19;100.00;93602.72;5090767;28;20024;-61
2023/01/18 09:31:21;;;;;;;40.25;36.00;;;;;;;-0.14;100.00;93603.13;5091083;28;20055;-60
2023/01/18 09:33:47;;;;;;;41.90;37.70;;;;;;;-0.13;100.00;93601.38;5090551;28;20028;-61
2023/01/18 09:36:13;;;;;;;39.25;35.35;;;;;;;-0.15;100.00;93611.84;5091057;28;20027;-60
2023/01/18 09:38:40;;;;;;;37.75;33.72;;;;;;;-0.12;100.00;93611.59;5090385;28;20044;-60
2023/01/18 09:41:18;;;;;;;44.00;39.35;;;;;;;-0.04;100.00;93614.38;5090843;28;20031;-60
2023/01/18 09:43:50;;;;;;;76.45;58.65;;;;;;;0.07;100.00;93610.06;5090145;28;20398;-60
2023/01/18 09:46:20;;;;;;;67.93;56.70;;;;;;;0.16;100.00;93617.06;5090269;28;20486;-60
2023/01/18 09:48:58;;;;;;;38.40;34.45;;;;;;;0.17;100.00;93623.03;5090601;28;20020;-61
2023/01/18 09:51:47;;;;;;;34.83;30.83;;;;;;;0.14;100.00;93627.53;5090257;28;20084;-63
2023/01/18 09:54:24;;;;;;;30.25;27.00;;;;;;;0.09;100.00;93640.03;5090615;28;20027;-63
2023/01/18 09:57:33;;;;;;;28.02;24.15;;;;;;;0.09;100.00;93652.13;5090614;28;20436;-63
2023/01/18 10:00:03;;;;;;;26.00;23.67;;;;;;;0.15;100.00;93651.66;5045340;28;20099;-64
2023/01/18 10:02:39;;;;;;;30.20;27.08;;;;;;;0.09;100.00;93649.56;5090432;28;20054;-63
2023/01/18 10:05:08;;;;;;;;;;;;;;;0.14;100.00;93655.19;5078836;28;20444;-63
2023/01/18 10:07:44;;;;;;;51.35;46.00;;;;;;;0.14;100.00;93655.19;5089014;28;20003;-66
2023/01/18 10:10:14;;;;;;;41.50;37.40;;;;;;;0.24;100.00;93658.63;5090452;28;20020;-61
2023/01/18 10:12:49;;;;;;;39.53;35.22;;;;;;;0.20;100.00;93657.25;5090030;28;20020;-62
2023/01/18 10:15:20;;;;;;;42.05;38.00;;;;;;;0.23;100.00;93666.53;5090247;28;20039;-61
2023/01/18 10:17:48;;;;;;;40.65;36.50;;;;;;;0.32;100.00;93663.16;5089971;28;20062;-61
2023/01/18 10:20:27;;;;;;;29.48;26.60;;;;;;;0.44;100.00;93676.84;5089896;28;20031;-61
2023/01/18 10:23:09;;;;;;;26.23;23.63;;;;;;;0.46;100.00;93681.91;5089388;28;20036;-61
2023/01/18 10:25:46;;;;;;;36.70;33.03;;;;;;;0.67;100.00;93689.59;5089966;28;20038;-72
2023/01/18 10:28:33;;;;;;;30.70;27.60;;;;;;;0.71;100.00;93697.00;5090003;28;20031;-66
2023/01/18 10:31:26;;;;;;;30.33;27.38;;;;;;;0.97;100.00;93706.03;5089508;28;20034;-61
2023/01/18 10:33:56;;;;;;;27.05;24.30;;;;;;;0.86;100.00;93701.78;5089597;28;20103;-61
2023/01/18 10:36:31;;;;;;;22.73;20.73;;;;;;;0.96;100.00;93707.00;5089604;28;20103;-61
2023/01/18 10:39:00;;;;;;;15.70;14.40;;;;;;;1.16;100.00;93717.41;5089353;28;20039;-61
2023/01/18 10:41:29;;;;;;;10.75;9.85;;;;;;;1.30;100.00;93714.44;5089638;28;20028;-61
2023/01/18 10:43:55;;;;;;;9.05;8.13;;;;;;;1.33;100.00;93716.78;5089601;28;20024;-61
2023/01/18 10:46:20;;;;;;;7.57;6.97;;;;;;;1.29;100.00;93721.41;5089403;28;20078;-74
2023/01/18 10:48:52;;;;;;;6.47;5.88;;;;;;;1.37;100.00;93728.50;5071488;28;20036;-60
2023/01/18 10:51:31;;;;;;;6.63;5.53;;;;;;;1.31;100.00;93729.06;5089315;28;20111;-60
2023/01/18 10:53:57;;;;;;;6.78;6.28;;;;;;;1.31;100.00;93723.88;5089669;28;20404;-60
2023/01/18 10:56:24;;;;;;;6.57;5.97;;;;;;;1.24;100.00;93728.75;5089373;28;20456;-60
2023/01/18 10:58:50;;;;;;;7.25;6.75;;;;;;;1.14;100.00;93733.13;5089642;28;20028;-60
2023/01/18 11:01:30;;;;;;;8.55;7.75;;;;;;;1.02;100.00;93732.41;5088923;28;21325;-60
2023/01/18 11:04:04;;;;;;;8.07;7.47;;;;;;;1.00;100.00;93729.94;5089303;28;20062;-65
2023/01/18 11:06:30;;;;;;;8.65;7.75;;;;;;;0.94;100.00;93737.41;5089204;28;20015;-65
2023/01/18 11:08:56;;;;;;;7.97;7.38;;;;;;;0.83;100.00;93746.09;5089425;28;20028;-63
2023/01/18 11:14:30;;;;;;;11.35;10.35;;;;;;;0.66;100.00;93747.53;5089080;28;20031;-64
2023/01/18 11:17:10;;;;;;;9.60;8.80;;;;;;;0.57;100.00;93736.19;5089337;28;20024;-64
2023/01/18 11:19:36;;;;;;;13.27;12.18;;;;;;;0.52;100.00;93744.31;5091450;28;20107;-64
2023/01/18 11:22:02;;;;;;;32.10;29.10;;;;;;;0.58;100.00;93748.19;5092929;28;20047;-62
2023/01/18 11:24:30;;;;;;;23.17;20.88;;;;;;;0.43;100.00;93750.28;5093423;28;20024;-61
2023/01/18 11:27:00;;;;;;;15.05;13.65;;;;;;;0.41;100.00;93752.19;5093145;28;20070;-66
2023/01/18 11:29:38;;;;;;;14.93;13.52;;;;;;;0.24;100.00;93763.94;5093379;28;20031;-66
2023/01/18 11:32:08;;;;;;;22.85;20.63;;;;;;;0.12;100.00;93758.00;5092881;28;20024;-66
2023/01/18 11:34:37;;;;;;;22.65;19.55;;;;;;;0.02;100.00;93752.78;5093483;28;20056;-66
2023/01/18 11:37:23;;;;;;;15.73;14.02;;;;;;;-0.08;100.00;93760.47;5092651;28;20016;-67
2023/01/18 11:39:49;;;;;;;;;;;;;;;-0.17;100.00;93761.19;5093173;28;20052;-68
2023/01/18 11:42:23;;;;;;;;;;;;;;;-0.22;100.00;93760.75;5093508;28;19958;-68
2023/01/18 11:44:57;;;;;;;25.65;23.15;;;;;;;-0.37;100.00;93762.81;5092784;28;19923;-61
2023/01/18 11:47:30;;;;;;;17.52;15.88;;;;;;;-0.32;100.00;93771.00;5093114;28;20497;-61
2023/01/18 11:50:24;;;;;;;7.28;6.68;;;;;;;-0.41;100.00;93771.75;5092316;28;20035;-61
2023/01/18 11:52:55;;;;;;;7.35;6.80;;;;;;;-0.48;100.00;93774.81;5091942;28;20115;-61
2023/01/18 11:55:46;;;;;;;8.32;7.72;;;;;;;-0.43;100.00;93779.63;5093014;28;20106;-61
2023/01/18 11:58:28;;;;;;;6.90;6.40;;;;;;;-0.41;100.00;93787.28;5082942;28;20119;-61